Artemis — SWZE — position and weather

sailwx.info

Track history (hours):
 
Tides and Currents Weather Stations Pressure Air Temp Water Temp Dewpoint Dewpoint Depression Visibility Wind Speed Wind Dir Waves Ship Positions

Artemis

Last reported at 2016-May-04 12:33 UTC. Time now 2016-May-04 17:23 UTC.
Position N 37°18' E 024°50'.

Length 89 m; draft 3.4 m.

Type: Passenger vessel. MMSI: 237026300.

Date/timePositionNaut miles runAvg speedWind from/ knotsBaromVisibWave heightAir tempDewpointWater temp
2016-May-04 12:33N 37°18' E 024°50'9 8.1
2016-May-04 11:23N 37°26' E 024°56'0 0.0
2016-May-04 10:32N 37°26' E 024°56'1 0.9
2016-May-04 09:24N 37°27' E 024°58'1112.8
2016-May-04 08:34N 37°32' E 025°09'1 0.2
2016-May-04 04:34N 37°32' E 025°08'11 9.2
2016-May-04 03:21N 37°26' E 024°56'0 0.0
2016-May-04 02:08N 37°26' E 024°56'0 0.0
2016-May-03 23:32N 37°26' E 024°56'0 0.0
2016-May-03 19:30N 37°26' E 024°56'9 9.4
2016-May-03 18:33N 37°18' E 024°58'1515.0
2016-May-03 17:33N 37°05' E 025°08'7 0.6
2016-May-03 06:33N 37°06' E 025°00'4 3.8
2016-May-03 05:33N 37°07' E 025°05'21 9.2
2016-May-03 03:19N 37°26' E 024°56'0 0.0
2016-May-03 02:22N 37°26' E 024°56'0 0.0
2016-May-03 01:07N 37°26' E 024°56'0 0.0
2016-May-03 00:14N 37°26' E 024°56'0 0.0
2016-May-02 23:11N 37°26' E 024°56'0 0.0
2016-May-02 22:32N 37°26' E 024°56'0 0.0
2016-May-02 21:12N 37°26' E 024°56'0 0.0
2016-May-02 20:26N 37°26' E 024°56'0 0.0
2016-May-02 19:18N 37°26' E 024°56'810.0
2016-May-02 18:32N 37°31' E 024°49'1815.6
2016-May-02 17:23N 37°29' E 024°27'18 2.2
2016-May-02 09:10N 37°38' E 024°07'41 8.8
2016-May-02 04:33N 37°30' E 024°57'3 3.3
2016-May-02 03:32N 37°26' E 024°57'0 0.0
2016-May-02 02:14N 37°26' E 024°56'0 0.0
2016-May-02 01:21N 37°26' E 024°56'0 0.0
2016-May-02 00:34N 37°26' E 024°57'0 0.0
2016-May-01 23:32N 37°26' E 024°57'0 0.0
2016-May-01 22:24N 37°26' E 024°57'0 0.0
2016-May-01 20:29N 37°26' E 024°57'0 0.0
2016-May-01 19:15N 37°26' E 024°57'0 0.0
2016-May-01 18:25N 37°26' E 024°57'8 9.1
2016-May-01 17:33N 37°19' E 025°01'1614.8
2016-May-01 16:30N 37°05' E 025°09'1313.5
2016-May-01 15:33N 37°09' E 024°53'3 0.4
2016-May-01 06:32N 37°06' E 024°56'16 8.0
2016-May-01 04:31N 37°22' E 024°60'5 2.4
2016-May-01 02:27N 37°26' E 024°56'0 0.0
2016-May-01 01:32N 37°26' E 024°56'0 0.0
2016-May-01 00:14N 37°26' E 024°56'0 0.0
2016-Apr-30 22:19N 37°26' E 024°56'0 0.0
2016-Apr-30 21:25N 37°26' E 024°56'0 0.0
2016-Apr-30 20:33N 37°26' E 024°56'0 0.0
2016-Apr-30 19:26N 37°26' E 024°56'0 0.0
2016-Apr-30 18:21N 37°26' E 024°56'0 0.0
2016-Apr-30 17:33N 37°26' E 024°56'0 0.0
2016-Apr-30 16:22N 37°26' E 024°56'5 1.7
2016-Apr-30 13:19N 37°22' E 024°60'1415.2
2016-Apr-30 12:25N 37°09' E 025°06'3 3.5
2016-Apr-30 11:31N 37°08' E 025°10'1010.5
2016-Apr-30 10:33N 37°06' E 025°22'8 0.4
2016-Apr-29 13:31N 36°59' E 025°18'8 8.4
2016-Apr-29 12:34N 37°07' E 025°21'10 8.9
2016-Apr-29 11:29N 37°05' E 025°09'1011.4
2016-Apr-29 10:33N 37°15' E 025°04'1312.3
2016-Apr-29 09:30N 37°26' E 024°57'9 9.6
2016-Apr-29 08:33N 37°31' E 024°46'9 0.4
2016-Apr-28 10:17N 37°29' E 024°57'3 4.1
2016-Apr-28 09:33N 37°26' E 024°57'7 7.3
2016-Apr-28 08:34N 37°20' E 024°53'4 0.2
2016-Apr-27 12:33N 37°17' E 024°49'1110.2
2016-Apr-27 11:26N 37°26' E 024°56'0 0.0
2016-Apr-27 10:22N 37°26' E 024°56'2 2.4
2016-Apr-27 09:30N 37°27' E 024°59'8 8.7
2016-Apr-27 08:33N 37°33' E 025°07'1 0.3
2016-Apr-27 04:34N 37°32' E 025°08'11 3.7
2016-Apr-27 01:33N 37°26' E 024°56'0 0.0
2016-Apr-27 00:07N 37°26' E 024°56'0 0.0
2016-Apr-26 23:28N 37°26' E 024°56'0 0.0
2016-Apr-26 22:24N 37°26' E 024°56'0 0.0
2016-Apr-26 18:24N 37°26' E 024°56'2312.3
2016-Apr-26 16:30N 37°05' E 025°09'1613.3
2016-Apr-26 15:16N 37°05' E 024°48'9 1.0
2016-Apr-26 06:34N 37°06' E 024°60'18 8.1
2016-Apr-26 04:22N 37°24' E 024°59'3 0.8
2016-Apr-26 00:27N 37°26' E 024°56'0 0.0
2016-Apr-25 23:29N 37°26' E 024°56'0 0.0
2016-Apr-25 22:10N 37°26' E 024°56'2 1.1
2016-Apr-25 20:33N 37°27' E 024°59'5 5.1
2016-Apr-25 19:33N 37°31' E 024°55'1 0.1
2016-Apr-25 04:24N 37°30' E 024°56'4 0.4
2016-Apr-24 18:33N 37°26' E 024°57'1312.8
2016-Apr-24 17:34N 37°14' E 025°01'9 8.3
2016-Apr-24 16:29N 37°06' E 025°06'  
Track history (hours):
 
Tides and Currents Weather Stations Pressure Air Temp Water Temp Dewpoint Dewpoint Depression Visibility Wind Speed Wind Dir Waves Ship Positions

Artemis

Last reported at 2016-May-04 12:33 UTC. Time now 2016-May-04 17:23 UTC.
Position N 37°18' E 024°50'.

Length 89 m; draft 3.4 m.

Type: Passenger vessel. MMSI: 237026300.

Date/timePositionNaut miles runAvg speedWind from/ knotsBaromVisibWave heightAir tempDewpointWater temp
2016-May-04 12:33N 37°18' E 024°50'9 8.1
2016-May-04 11:23N 37°26' E 024°56'0 0.0
2016-May-04 10:32N 37°26' E 024°56'1 0.9
2016-May-04 09:24N 37°27' E 024°58'1112.8
2016-May-04 08:34N 37°32' E 025°09'1 0.2
2016-May-04 04:34N 37°32' E 025°08'11 9.2
2016-May-04 03:21N 37°26' E 024°56'0 0.0
2016-May-04 02:08N 37°26' E 024°56'0 0.0
2016-May-03 23:32N 37°26' E 024°56'0 0.0
2016-May-03 19:30N 37°26' E 024°56'9 9.4
2016-May-03 18:33N 37°18' E 024°58'1515.0
2016-May-03 17:33N 37°05' E 025°08'7 0.6
2016-May-03 06:33N 37°06' E 025°00'4 3.8
2016-May-03 05:33N 37°07' E 025°05'21 9.2
2016-May-03 03:19N 37°26' E 024°56'0 0.0
2016-May-03 02:22N 37°26' E 024°56'0 0.0
2016-May-03 01:07N 37°26' E 024°56'0 0.0
2016-May-03 00:14N 37°26' E 024°56'0 0.0
2016-May-02 23:11N 37°26' E 024°56'0 0.0
2016-May-02 22:32N 37°26' E 024°56'0 0.0
2016-May-02 21:12N 37°26' E 024°56'0 0.0
2016-May-02 20:26N 37°26' E 024°56'0 0.0
2016-May-02 19:18N 37°26' E 024°56'810.0
2016-May-02 18:32N 37°31' E 024°49'1815.6
2016-May-02 17:23N 37°29' E 024°27'18 2.2
2016-May-02 09:10N 37°38' E 024°07'41 8.8
2016-May-02 04:33N 37°30' E 024°57'3 3.3
2016-May-02 03:32N 37°26' E 024°57'0 0.0
2016-May-02 02:14N 37°26' E 024°56'0 0.0
2016-May-02 01:21N 37°26' E 024°56'0 0.0
2016-May-02 00:34N 37°26' E 024°57'0 0.0
2016-May-01 23:32N 37°26' E 024°57'0 0.0
2016-May-01 22:24N 37°26' E 024°57'0 0.0
2016-May-01 20:29N 37°26' E 024°57'0 0.0
2016-May-01 19:15N 37°26' E 024°57'0 0.0
2016-May-01 18:25N 37°26' E 024°57'8 9.1
2016-May-01 17:33N 37°19' E 025°01'1614.8
2016-May-01 16:30N 37°05' E 025°09'1313.5
2016-May-01 15:33N 37°09' E 024°53'3 0.4
2016-May-01 06:32N 37°06' E 024°56'16 8.0
2016-May-01 04:31N 37°22' E 024°60'5 2.4
2016-May-01 02:27N 37°26' E 024°56'0 0.0
2016-May-01 01:32N 37°26' E 024°56'0 0.0
2016-May-01 00:14N 37°26' E 024°56'0 0.0
2016-Apr-30 22:19N 37°26' E 024°56'0 0.0
2016-Apr-30 21:25N 37°26' E 024°56'0 0.0
2016-Apr-30 20:33N 37°26' E 024°56'0 0.0
2016-Apr-30 19:26N 37°26' E 024°56'0 0.0
2016-Apr-30 18:21N 37°26' E 024°56'0 0.0
2016-Apr-30 17:33N 37°26' E 024°56'0 0.0
2016-Apr-30 16:22N 37°26' E 024°56'5 1.7
2016-Apr-30 13:19N 37°22' E 024°60'1415.2
2016-Apr-30 12:25N 37°09' E 025°06'3 3.5
2016-Apr-30 11:31N 37°08' E 025°10'1010.5
2016-Apr-30 10:33N 37°06' E 025°22'8 0.4
2016-Apr-29 13:31N 36°59' E 025°18'8 8.4
2016-Apr-29 12:34N 37°07' E 025°21'10 8.9
2016-Apr-29 11:29N 37°05' E 025°09'1011.4
2016-Apr-29 10:33N 37°15' E 025°04'1312.3
2016-Apr-29 09:30N 37°26' E 024°57'9 9.6
2016-Apr-29 08:33N 37°31' E 024°46'9 0.4
2016-Apr-28 10:17N 37°29' E 024°57'3 4.1
2016-Apr-28 09:33N 37°26' E 024°57'7 7.3
2016-Apr-28 08:34N 37°20' E 024°53'4 0.2
2016-Apr-27 12:33N 37°17' E 024°49'1110.2
2016-Apr-27 11:26N 37°26' E 024°56'0 0.0
2016-Apr-27 10:22N 37°26' E 024°56'2 2.4
2016-Apr-27 09:30N 37°27' E 024°59'8 8.7
2016-Apr-27 08:33N 37°33' E 025°07'1 0.3
2016-Apr-27 04:34N 37°32' E 025°08'11 3.7
2016-Apr-27 01:33N 37°26' E 024°56'0 0.0
2016-Apr-27 00:07N 37°26' E 024°56'0 0.0
2016-Apr-26 23:28N 37°26' E 024°56'0 0.0
2016-Apr-26 22:24N 37°26' E 024°56'0 0.0
2016-Apr-26 18:24N 37°26' E 024°56'2312.3
2016-Apr-26 16:30N 37°05' E 025°09'1613.3
2016-Apr-26 15:16N 37°05' E 024°48'9 1.0
2016-Apr-26 06:34N 37°06' E 024°60'18 8.1
2016-Apr-26 04:22N 37°24' E 024°59'3 0.8
2016-Apr-26 00:27N 37°26' E 024°56'0 0.0
2016-Apr-25 23:29N 37°26' E 024°56'0 0.0
2016-Apr-25 22:10N 37°26' E 024°56'2 1.1
2016-Apr-25 20:33N 37°27' E 024°59'5 5.1
2016-Apr-25 19:33N 37°31' E 024°55'1 0.1
2016-Apr-25 04:24N 37°30' E 024°56'4 0.4
2016-Apr-24 18:33N 37°26' E 024°57'1312.8
2016-Apr-24 17:34N 37°14' E 025°01'9 8.3
2016-Apr-24 16:29N 37°06' E 025°06'  

Dump ship's entire track history